Time;durP1;ratioP1;P1;durP2;ratioP2;P2;SDS_P1;SDS_P2;PMS_P1;PMS_P2;Temp;Humidity;BMP_temperature;BMP_pressure;BME280_temperature;BME280_humidity;BME280_pressure;Samples;Min_cycle;Max_cycle;Signal;HPM_P1;HPM_P2
2022/09/01 00:02:26;;;;;;;;;;;;;;;23.99;80.00;99839.81;5017204;28;19995;-81
2022/09/01 00:04:55;;;;;;;;;;;;;;;23.99;80.26;99840.59;5035188;28;19917;-81
2022/09/01 00:07:20;;;;;;;;;;;;;;;24.01;80.16;99826.72;5017756;28;19936;-81
2022/09/01 00:09:46;;;;;;;;;;;;;;;23.88;80.72;99831.69;5034563;28;20348;-81
2022/09/01 00:12:11;;;;;;;;;;;;;;;23.82;81.09;99842.06;5017018;28;20369;-81
2022/09/01 00:14:39;;;;;;;;;;;;;;;23.75;81.65;99825.28;5017359;28;19920;-81
2022/09/01 00:17:06;;;;;;;;;;;;;;;23.73;81.56;99824.94;5017492;28;19913;-81
2022/09/01 00:19:32;;;;;;;;;;;;;;;23.72;81.34;99826.22;5035045;28;20374;-81
2022/09/01 00:21:58;;;;;;;;;;;;;;;23.82;81.06;99821.41;5034661;28;19975;-81
2022/09/01 00:24:24;;;;;;;;;;;;;;;23.82;81.42;99827.88;5034981;28;20348;-81
2022/09/01 00:26:50;;;;;;;;;;;;;;;23.79;81.42;99825.94;5034873;28;19968;-81
2022/09/01 00:29:15;;;;;;;;;;;;;;;23.83;81.49;99837.97;5017116;28;20000;-82
2022/09/01 00:31:41;;;;;;;;;;;;;;;23.93;81.10;99836.00;5016524;28;19921;-82
2022/09/01 00:34:06;;;;;;;;;;;;;;;23.98;80.37;99826.88;5017030;28;19913;-82
2022/09/01 00:36:31;;;;;;;;;;;;;;;23.94;80.96;99832.69;5016691;28;19920;-81
2022/09/01 00:38:57;;;;;;;;;;;;;;;24.02;79.97;99833.19;5034116;28;19920;-81
2022/09/01 00:41:24;;;;;;;;;;;;;;;24.08;79.67;99825.69;5016676;28;19921;-82
2022/09/01 00:43:58;;;;;;;;;;;;;;;24.13;80.05;99821.41;5017653;28;20247;-82
2022/09/01 00:46:31;;;;;;;;;;;;;;;24.17;79.41;99819.25;5016795;28;20278;-81
2022/09/01 00:49:08;;;;;;;;;;;;;;;24.09;79.16;99826.47;5016862;28;20004;-80
2022/09/01 00:51:36;;;;;;;;;;;;;;;24.10;79.40;99820.31;5034232;28;19913;-81
2022/09/01 00:54:02;;;;;;;;;;;;;;;24.14;79.16;99817.34;5035065;28;20363;-81
2022/09/01 00:56:29;;;;;;;;;;;;;;;24.20;78.80;99821.16;5016982;28;19940;-81
2022/09/01 00:58:55;;;;;;;;;;;;;;;24.08;79.33;99813.53;5034059;28;20332;-81
2022/09/01 01:01:22;;;;;;;;;;;;;;;24.11;79.88;99807.69;5016056;28;19917;-81
2022/09/01 01:03:47;;;;;;;;;;;;;;;24.08;79.43;99813.53;5016566;28;19913;-81
2022/09/01 01:06:15;;;;;;;;;;;;;;;23.88;80.71;99806.13;5016972;28;20248;-81
2022/09/01 01:08:55;;;;;;;;;;;;;;;23.81;81.06;99795.03;5016260;28;19913;-81
2022/09/01 01:11:21;;;;;;;;;;;;;;;23.79;81.39;99800.38;5019231;28;19996;-81
2022/09/01 01:14:04;;;;;;;;;;;;;;;23.74;81.26;99800.97;5020402;28;19944;-81
2022/09/01 01:16:30;;;;;;;;;;;;;;;23.71;81.63;99793.38;5020293;28;19972;-81
2022/09/01 01:18:55;;;;;;;;;;;;;;;23.84;80.54;99788.41;5020300;28;19914;-80
2022/09/01 01:24:18;;;;;;;;;;;;;;;23.82;81.56;99795.81;5038374;28;20012;-81
2022/09/01 01:26:44;;;;;;;;;;;;;;;23.78;81.65;99793.91;5020627;28;19920;-81
2022/09/01 01:29:10;;;;;;;;;;;;;;;23.80;82.03;99796.28;5038134;28;19920;-81
2022/09/01 01:31:36;;;;;;;;;;;;;;;23.84;82.04;99787.63;5020063;28;19956;-82
2022/09/01 01:34:05;;;;;;;;;;;;;;;23.95;80.05;99791.63;5020826;28;20279;-80
2022/09/01 01:36:35;;;;;;;;;;;;;;;23.91;80.67;99776.78;5037517;28;19913;-82
2022/09/01 01:39:06;;;;;;;;;;;;;;;23.82;80.84;99776.72;5037955;28;20352;-81
2022/09/01 01:41:32;;;;;;;;;;;;;;;23.83;80.96;99775.47;5020178;28;19924;-82
2022/09/01 01:43:58;;;;;;;;;;;;;;;23.94;80.88;99778.69;5019800;28;20379;-80
2022/09/01 01:46:24;;;;;;;;;;;;;;;23.86;81.06;99783.06;5020044;28;19917;-82
2022/09/01 01:48:51;;;;;;;;;;;;;;;23.65;82.53;99781.00;5037511;28;20302;-82
2022/09/01 01:51:19;;;;;;;;;;;;;;;23.69;82.50;99776.78;5037761;28;19963;-82
2022/09/01 01:53:46;;;;;;;;;;;;;;;23.75;81.92;99779.81;5019978;28;20304;-82
2022/09/01 01:56:11;;;;;;;;;;;;;;;23.63;82.96;99775.81;5036990;28;19975;-82
2022/09/01 01:58:39;;;;;;;;;;;;;;;23.65;83.21;99773.31;5037613;28;19917;-82
2022/09/01 02:01:05;;;;;;;;;;;;;;;23.65;83.82;99769.66;5019410;28;19925;-81
2022/09/01 02:03:37;;;;;;;;;;;;;;;23.64;83.71;99768.88;5019701;28;19959;-81
2022/09/01 02:06:06;;;;;;;;;;;;;;;23.73;85.41;99777.47;5020007;28;19983;-80
2022/09/01 02:08:33;;;;;;;;;;;;;;;23.73;85.23;99780.28;5037159;28;19952;-80
2022/09/01 02:10:59;;;;;;;;;;;;;;;23.72;86.02;99780.75;5019290;28;20398;-79
2022/09/01 02:13:27;;;;;;;;;;;;;;;23.79;85.71;99786.16;5019284;28;19920;-79
2022/09/01 02:15:54;;;;;;;;;;;;;;;23.72;86.26;99775.09;5037003;28;19952;-78
2022/09/01 02:18:22;;;;;;;;;;;;;;;23.70;86.88;99783.25;5036673;28;19959;-78
2022/09/01 02:20:49;;;;;;;;;;;;;;;23.67;87.05;99785.00;5019205;28;19996;-78
2022/09/01 02:23:22;;;;;;;;;;;;;;;23.69;87.59;99790.19;5036494;28;19919;-78
2022/09/01 02:25:47;;;;;;;;;;;;;;;23.71;88.28;99791.34;5019018;28;19920;-78
2022/09/01 02:28:14;;;;;;;;;;;;;;;23.70;89.10;99794.63;5036731;28;19913;-78
2022/09/01 02:30:44;;;;;;;;;;;;;;;23.70;89.40;99788.94;5019007;28;20356;-78
2022/09/01 02:33:10;;;;;;;;;;;;;;;23.65;89.89;99790.34;5019256;28;19944;-78
2022/09/01 02:35:36;;;;;;;;;;;;;;;23.63;90.05;99786.38;5036636;28;20271;-78
2022/09/01 02:38:05;;;;;;;;;;;;;;;23.69;90.07;99793.81;5018546;28;20020;-79
2022/09/01 02:40:31;;;;;;;;;;;;;;;23.79;90.04;99791.84;5036749;28;19914;-79
2022/09/01 02:42:58;;;;;;;;;;;;;;;23.84;89.41;99796.94;5018926;28;20351;-80
2022/09/01 02:45:24;;;;;;;;;;;;;;;23.78;90.04;99790.28;5018573;28;19914;-79
2022/09/01 02:47:50;;;;;;;;;;;;;;;23.70;89.17;99788.94;5018586;28;19913;-79
2022/09/01 02:50:17;;;;;;;;;;;;;;;23.57;88.69;99777.63;5018860;28;19913;-79
2022/09/01 02:52:48;;;;;;;;;;;;;;;23.42;89.88;99783.03;5018814;28;19936;-79
2022/09/01 02:55:16;;;;;;;;;;;;;;;23.29;90.11;99782.31;5018496;28;19913;-80
2022/09/01 02:57:42;;;;;;;;;;;;;;;23.22;91.16;99791.88;5036124;28;19917;-80
2022/09/01 03:00:21;;;;;;;;;;;;;;;23.23;91.96;99799.13;5018150;28;20364;-79
2022/09/01 03:02:51;;;;;;;;;;;;;;;23.47;93.35;99805.16;5018923;28;19913;-79
2022/09/01 03:05:24;;;;;;;;;;;;;;;23.63;93.99;99823.28;5018515;28;19913;-80
2022/09/01 03:07:53;;;;;;;;;;;;;;;23.36;91.66;99832.34;5018511;28;19983;-81
2022/09/01 03:10:20;;;;;;;;;;;;;;;23.12;91.59;99831.97;5036298;28;19994;-80
2022/09/01 03:12:45;;;;;;;;;;;;;;;22.87;92.36;99841.28;5018112;28;19955;-81
2022/09/01 03:15:12;;;;;;;;;;;;;;;22.60;92.31;99841.75;5018167;28;19964;-80
2022/09/01 03:17:37;;;;;;;;;;;;;;;22.48;94.77;99849.78;5018037;28;19913;-82
2022/09/01 03:20:03;;;;;;;;;;;;;;;22.39;94.43;99852.50;5018560;28;19913;-80
2022/09/01 03:22:28;;;;;;;;;;;;;;;22.20;93.81;99856.31;5018538;28;20344;-81
2022/09/01 03:24:55;;;;;;;;;;;;;;;22.06;94.29;99860.34;5017834;28;19912;-82
2022/09/01 03:27:20;;;;;;;;;;;;;;;22.04;94.16;99850.69;5017845;28;19920;-81
2022/09/01 03:29:45;;;;;;;;;;;;;;;21.90;93.59;99847.03;5018113;28;19999;-83
2022/09/01 03:32:11;;;;;;;;;;;;;;;21.77;94.44;99820.72;5017699;28;19917;-84
2022/09/01 03:34:37;;;;;;;;;;;;;;;21.51;93.82;99805.66;5017752;28;19999;-84
2022/09/01 03:37:06;;;;;;;;;;;;;;;21.54;94.77;99798.34;5017597;28;19921;-84
2022/09/01 03:39:32;;;;;;;;;;;;;;;21.48;96.25;99808.63;5035349;28;20389;-83
2022/09/01 03:41:58;;;;;;;;;;;;;;;21.61;96.87;99826.44;5017542;28;19913;-83
2022/09/01 03:44:24;;;;;;;;;;;;;;;21.70;96.71;99823.75;5018025;28;19921;-83
2022/09/01 03:46:50;;;;;;;;;;;;;;;21.55;96.78;99816.91;5017495;28;20036;-83
2022/09/01 03:49:23;;;;;;;;;;;;;;;21.52;97.02;99807.28;5017434;28;19913;-85
2022/09/01 03:51:51;;;;;;;;;;;;;;;21.44;97.02;99797.38;5017941;28;19936;-85
2022/09/01 03:54:17;;;;;;;;;;;;;;;21.45;97.67;99791.25;5017319;28;19928;-85
2022/09/01 03:56:42;;;;;;;;;;;;;;;21.35;97.09;99781.03;5017610;28;19917;-83
2022/09/01 03:59:15;;;;;;;;;;;;;;;21.35;97.51;99786.69;5017263;28;19952;-85
2022/09/01 04:01:42;;;;;;;;;;;;;;;21.34;97.03;99773.00;5034740;28;19917;-85
2022/09/01 04:04:12;;;;;;;;;;;;;;;21.20;96.27;99777.00;5034853;28;19917;-84
2022/09/01 04:06:38;;;;;;;;;;;;;;;21.27;96.86;99770.34;5017141;28;19913;-85
2022/09/01 04:09:04;;;;;;;;;;;;;;;21.13;94.20;99780.00;5017390;28;19920;-85
2022/09/01 04:11:31;;;;;;;;;;;;;;;21.18;93.84;99770.97;5017058;28;19920;-84
2022/09/01 04:13:56;;;;;;;;;;;;;;;21.17;92.36;99767.34;5017889;28;19920;-85
2022/09/01 04:19:24;;;;;;;;;;;;;;;20.88;97.81;99781.47;5034943;28;19920;-83
2022/09/01 04:21:50;;;;;;;;;;;;;;;20.84;98.75;99779.97;5034678;28;20063;-85
2022/09/01 04:24:17;;;;;;;;;;;;;;;20.83;100.00;99778.38;5034929;28;19920;-85
2022/09/01 04:26:44;;;;;;;;;;;;;;;20.73;100.00;99785.88;5016826;28;20003;-85
2022/09/01 04:29:11;;;;;;;;;;;;;;;20.67;97.37;99782.00;5034125;28;19935;-85
2022/09/01 04:31:38;;;;;;;;;;;;;;;20.72;97.56;99775.81;5034123;28;19916;-85
2022/09/01 04:34:12;;;;;;;;;;;;;;;20.65;96.00;99779.59;5016710;28;19921;-85
2022/09/01 04:36:39;;;;;;;;;;;;;;;20.77;95.49;99786.56;5034094;28;19992;-83
2022/09/01 04:39:08;;;;;;;;;;;;;;;20.85;94.61;99793.66;5016975;28;20004;-84
2022/09/01 04:41:36;;;;;;;;;;;;;;;20.77;95.65;99786.56;5016567;28;19948;-82
2022/09/01 04:44:03;;;;;;;;;;;;;;;20.81;96.76;99786.50;5034029;28;20112;-82
2022/09/01 04:46:30;;;;;;;;;;;;;;;20.88;97.74;99787.13;5017046;28;20020;-84
2022/09/01 04:48:56;;;;;;;;;;;;;;;20.93;97.84;99783.75;5016996;28;20313;-83
2022/09/01 04:51:23;;;;;;;;;;;;;;;21.13;98.12;99774.34;5034169;28;19921;-84
2022/09/01 04:53:49;;;;;;;;;;;;;;;21.17;97.31;99766.56;5035063;28;20255;-84
2022/09/01 04:56:21;;;;;;;;;;;;;;;21.18;97.58;99756.84;5034654;28;19919;-83
2022/09/01 04:58:48;;;;;;;;;;;;;;;21.19;97.65;99761.25;5033701;28;20008;-84
2022/09/01 05:01:19;;;;;;;;;;;;;;;21.23;97.59;99744.97;5016122;28;19944;-84
2022/09/01 05:03:44;;;;;;;;;;;;;;;21.30;97.94;99749.66;5033744;28;19913;-84
2022/09/01 05:06:17;;;;;;;;;;;;;;;21.31;98.05;99740.75;5015969;28;20378;-84
2022/09/01 05:08:44;;;;;;;;;;;;;;;21.35;97.29;99735.75;5033976;28;19917;-84
2022/09/01 05:11:10;;;;;;;;;;;;;;;21.34;96.94;99737.00;5016663;28;20320;-84
2022/09/01 05:13:38;;;;;;;;;;;;;;;21.32;96.46;99733.06;5015888;28;19913;-83
2022/09/01 05:16:11;;;;;;;;;;;;;;;21.23;95.64;99736.47;5016377;28;20383;-84
2022/09/01 05:18:47;;;;;;;;;;;;;;;21.30;95.25;99736.31;5016544;28;19999;-84
2022/09/01 05:21:15;;;;;;;;;;;;;;;21.15;93.39;99726.63;5016001;28;20016;-82
2022/09/01 05:23:41;;;;;;;;;;;;;;;21.19;94.38;99724.47;5016349;28;20276;-83
2022/09/01 05:26:17;;;;;;;;;;;;;;;21.37;95.31;99726.84;5015905;28;19913;-83
2022/09/01 05:28:49;;;;;;;;;;;;;;;21.48;96.46;99726.53;5015915;28;19971;-83
2022/09/01 05:31:18;;;;;;;;;;;;;;;21.48;95.09;99729.38;5016467;28;20280;-84
2022/09/01 05:33:44;;;;;;;;;;;;;;;21.48;95.31;99730.16;5033746;28;19913;-82
2022/09/01 05:36:14;;;;;;;;;;;;;;;21.61;94.07;99721.69;5016028;28;19913;-83
2022/09/01 05:38:41;;;;;;;;;;;;;;;21.57;94.30;99723.81;5015758;28;20388;-82
2022/09/01 05:41:07;;;;;;;;;;;;;;;21.61;94.90;99719.66;5015536;28;19932;-84
2022/09/01 05:43:32;;;;;;;;;;;;;;;21.74;94.91;99716.84;5033203;28;19921;-84
2022/09/01 05:45:59;;;;;;;;;;;;;;;21.71;94.84;99718.53;5016174;28;19913;-84
2022/09/01 05:48:25;;;;;;;;;;;;;;;21.70;94.53;99716.16;5016033;28;19913;-83
2022/09/01 05:50:55;;;;;;;;;;;;;;;21.71;94.73;99712.88;5016345;28;19978;-84
2022/09/01 05:53:24;;;;;;;;;;;;;;;21.72;93.79;99716.50;5000778;28;20011;-85
2022/09/01 05:55:55;;;;;;;;;;;;;;;21.63;94.33;99719.22;5034256;28;19977;-84
2022/09/01 05:58:23;;;;;;;;;;;;;;;21.66;95.00;99710.59;5019401;28;19913;-82
2022/09/01 06:00:50;;;;;;;;;;;;;;;21.63;94.90;99710.72;5019144;28;19924;-83
2022/09/01 06:03:16;;;;;;;;;;;;;;;21.63;95.40;99716.38;5036513;28;19913;-82
2022/09/01 06:05:43;;;;;;;;;;;;;;;21.66;94.29;99715.47;5019218;28;19920;-84
2022/09/01 06:08:09;;;;;;;;;;;;;;;21.25;89.25;99719.84;5018951;28;19964;-83
2022/09/01 06:10:38;;;;;;;;;;;;;;;21.10;88.44;99724.34;5018870;28;19921;-81
2022/09/01 06:13:05;;;;;;;;;;;;;;;21.03;90.27;99713.19;5018995;28;19967;-82
2022/09/01 06:15:31;;;;;;;;;;;;;;;20.98;89.14;99719.41;5036816;28;19967;-82
2022/09/01 06:17:57;;;;;;;;;;;;;;;21.00;91.52;99714.09;5019001;28;20290;-84
2022/09/01 06:20:22;;;;;;;;;;;;;;;20.95;91.13;99703.34;5019064;28;20344;-84
2022/09/01 06:22:48;;;;;;;;;;;;;;;20.89;91.05;99692.56;5019565;28;19913;-84
2022/09/01 06:25:16;;;;;;;;;;;;;;;20.89;91.78;99689.75;5018756;28;19913;-84
2022/09/01 06:27:43;;;;;;;;;;;;;;;20.97;93.43;99701.63;5018718;28;19920;-82
2022/09/01 06:30:17;;;;;;;;;;;;;;;21.01;91.78;99698.72;5019283;28;20218;-85
2022/09/01 06:32:43;;;;;;;;;;;;;;;21.08;92.70;99698.50;5019089;28;19924;-84
2022/09/01 06:35:12;;;;;;;;;;;;;;;21.09;90.76;99694.44;5019045;28;19996;-85
2022/09/01 06:37:38;;;;;;;;;;;;;;;21.01;90.67;99699.50;5037004;28;19952;-84
2022/09/01 06:40:04;;;;;;;;;;;;;;;21.04;90.61;99690.16;5019248;28;20012;-85
2022/09/01 06:42:33;;;;;;;;;;;;;;;21.00;90.87;99686.63;5018570;28;19913;-85
2022/09/01 06:44:59;;;;;;;;;;;;;;;20.91;89.28;99684.41;5018483;28;19913;-85
2022/09/01 06:47:27;;;;;;;;;;;;;;;20.86;89.33;99682.13;5019514;28;19963;-85
2022/09/01 06:49:57;;;;;;;;;;;;;;;20.85;90.94;99679.75;5018582;28;19975;-85
2022/09/01 06:52:22;;;;;;;;;;;;;;;21.00;90.61;99680.16;5019046;28;20268;-85
2022/09/01 06:54:50;;;;;;;;;;;;;;;20.76;90.89;99676.75;5018318;28;19921;-84
2022/09/01 06:57:16;;;;;;;;;;;;;;;20.75;91.07;99670.31;5018348;28;19920;-84
2022/09/01 06:59:41;;;;;;;;;;;;;;;20.82;90.52;99675.78;5018849;28;20008;-84
2022/09/01 07:02:07;;;;;;;;;;;;;;;20.87;91.08;99672.41;5017722;28;19999;-83
2022/09/01 07:04:33;;;;;;;;;;;;;;;21.00;92.36;99668.84;5018398;28;20343;-84
2022/09/01 07:06:59;;;;;;;;;;;;;;;21.01;89.76;99659.91;5018723;28;20012;-84
2022/09/01 07:09:24;;;;;;;;;;;;;;;21.03;90.21;99657.44;5018401;28;19913;-84
2022/09/01 07:11:51;;;;;;;;;;;;;;;21.06;89.61;99655.75;5018144;28;19913;-84
2022/09/01 07:14:16;;;;;;;;;;;;;;;21.12;89.38;99660.41;5018333;28;19913;-84
2022/09/01 07:16:42;;;;;;;;;;;;;;;21.06;89.70;99664.25;5018638;28;19913;-83
2022/09/01 07:19:11;;;;;;;;;;;;;;;21.13;89.32;99666.84;5035874;28;19948;-84
2022/09/01 07:21:42;;;;;;;;;;;;;;;21.05;90.17;99665.47;5019217;28;20252;-85
2022/09/01 07:24:10;;;;;;;;;;;;;;;21.05;90.01;99663.44;5018595;28;19962;-85
2022/09/01 07:26:37;;;;;;;;;;;;;;;21.03;89.75;99662.28;5017630;28;20012;-85
2022/09/01 07:29:03;;;;;;;;;;;;;;;21.15;89.35;99658.72;5017878;28;19983;-83
2022/09/01 07:31:33;;;;;;;;;;;;;;;21.14;89.79;99651.47;5017977;28;19966;-84
2022/09/01 07:34:07;;;;;;;;;;;;;;;21.10;88.60;99662.91;5035203;28;19913;-83
2022/09/01 07:36:32;;;;;;;;;;;;;;;21.30;90.68;99656.28;5017642;28;19913;-82
2022/09/01 07:38:59;;;;;;;;;;;;;;;21.38;88.26;99649.19;5017674;28;20366;-82
2022/09/01 07:41:26;;;;;;;;;;;;;;;21.41;85.24;99646.28;5035820;28;19944;-84
2022/09/01 07:44:01;;;;;;;;;;;;;;;21.61;84.24;99645.25;5017837;28;19963;-85
2022/09/01 07:46:32;;;;;;;;;;;;;;;21.71;84.51;99655.47;5017922;28;19936;-83
2022/09/01 07:49:02;;;;;;;;;;;;;;;22.02;85.08;99657.75;5017259;28;19913;-83
2022/09/01 07:51:28;;;;;;;;;;;;;;;22.09;85.63;99651.84;5017216;28;19913;-82
2022/09/01 07:53:56;;;;;;;;;;;;;;;22.18;84.73;99658.44;5035089;28;19917;-83
2022/09/01 07:56:23;;;;;;;;;;;;;;;22.29;83.37;99666.59;5017431;28;19924;-82
2022/09/01 07:58:50;;;;;;;;;;;;;;;22.03;81.53;99659.31;5016860;28;19920;-84
2022/09/01 08:01:18;;;;;;;;;;;;;;;22.15;81.10;99673.50;5017048;28;19917;-82
2022/09/01 08:03:45;;;;;;;;;;;;;;;22.14;79.61;99669.09;5016989;28;19986;-84
2022/09/01 08:06:18;;;;;;;;;;;;;;;22.22;81.05;99673.28;5016926;28;19920;-82
2022/09/01 08:08:49;;;;;;;;;;;;;;;22.23;81.37;99672.03;5017478;28;19979;-82
2022/09/01 08:11:17;;;;;;;;;;;;;;;22.12;79.81;99679.28;5017040;28;19914;-83
2022/09/01 08:13:42;;;;;;;;;;;;;;;22.15;82.06;99689.72;5017470;28;20267;-82
2022/09/01 08:16:09;;;;;;;;;;;;;;;22.20;81.03;99691.97;5017126;28;19913;-83
2022/09/01 08:18:36;;;;;;;;;;;;;;;22.22;82.37;99686.66;5034656;28;19920;-83
2022/09/01 08:23:55;;;;;;;;;;;;;;;22.38;82.28;99692.19;5018310;28;19961;-80
2022/09/01 08:26:24;;;;;;;;;;;;;;;22.21;80.56;99690.72;5017304;28;19913;-80
2022/09/01 08:28:51;;;;;;;;;;;;;;;22.16;78.66;99686.44;5013648;28;19929;-81
2022/09/01 08:31:18;;;;;;;;;;;;;;;22.16;80.10;99691.31;5034181;28;20018;-82
2022/09/01 08:33:52;;;;;;;;;;;;;;;22.23;80.92;99679.75;5033986;28;19920;-81
2022/09/01 08:36:18;;;;;;;;;;;;;;;22.30;80.80;99679.50;5016773;28;19917;-79
2022/09/01 08:38:53;;;;;;;;;;;;;;;22.38;79.38;99680.84;5016376;28;20427;-81
2022/09/01 08:41:21;;;;;;;;;;;;;;;22.26;78.93;99675.97;5016114;28;19913;-81
2022/09/01 08:43:56;;;;;;;;;;;;;;;21.92;79.46;99671.00;5016010;28;19920;-80
2022/09/01 08:46:27;;;;;;;;;;;;;;;21.87;80.90;99663.06;5016426;28;19917;-78
2022/09/01 08:49:01;;;;;;;;;;;;;;;21.95;81.12;99658.78;5016511;28;19913;-81
2022/09/01 08:51:46;;;;;;;;;;;;;;;21.82;81.02;99661.59;5016014;28;19959;-82
2022/09/01 08:54:15;;;;;;;;;;;;;;;21.76;82.51;99662.59;5016107;28;19920;-81
2022/09/01 08:56:42;;;;;;;;;;;;;;;21.70;82.13;99666.00;5034096;28;19929;-80
2022/09/01 08:59:15;;;;;;;;;;;;;;;21.59;82.53;99659.88;5016242;28;19948;-82
2022/09/01 09:01:52;;;;;;;;;;;;;;;21.59;85.16;99659.09;5015920;28;20352;-81
2022/09/01 09:04:17;;;;;;;;;;;;;;;21.51;85.13;99657.69;5015685;28;19913;-79
2022/09/01 09:07:04;;;;;;;;;;;;;;;21.51;85.32;99657.69;5016122;28;19920;-81
2022/09/01 09:09:33;;;;;;;;;;;;;;;21.39;85.04;99648.75;5016061;28;19921;-81
2022/09/01 09:12:25;;;;;;;;;;;;;;;21.18;86.29;99640.84;5016304;28;19914;-81
2022/09/01 09:15:04;;;;;;;;;;;;;;;21.13;86.82;99647.06;4993767;28;19913;-81
2022/09/01 09:17:33;;;;;;;;;;;;;;;21.08;87.33;99642.75;5013013;28;19923;-81
2022/09/01 09:19:59;;;;;;;;;;;;;;;21.16;88.47;99638.47;5016146;28;19913;-81
2022/09/01 09:22:24;;;;;;;;;;;;;;;21.03;88.41;99636.84;4999928;28;20015;-83
2022/09/01 09:24:50;;;;;;;;;;;;;;;20.96;89.13;99640.66;5016474;28;20007;-82
2022/09/01 09:27:17;;;;;;;;;;;;;;;20.92;89.49;99628.66;5016967;28;19920;-81
2022/09/01 09:29:44;;;;;;;;;;;;;;;20.70;89.28;99628.47;5017400;28;19917;-81
2022/09/01 09:32:09;;;;;;;;;;;;;;;20.67;91.02;99629.38;5020467;28;19960;-82
2022/09/01 09:34:39;;;;;;;;;;;;;;;20.87;90.67;99638.47;5022317;28;19913;-82
2022/09/01 09:37:23;;;;;;;;;;;;;;;20.75;90.27;99649.75;5020108;28;19913;-81
2022/09/01 09:40:09;;;;;;;;;;;;;;;20.74;90.08;99651.78;5020509;28;19913;-81
2022/09/01 09:42:38;;;;;;;;;;;;;;;20.83;90.04;99665.28;5019789;28;19920;-81
2022/09/01 09:45:03;;;;;;;;;;;;;;;21.00;89.85;99672.47;5037583;28;20373;-82
2022/09/01 09:47:34;;;;;;;;;;;;;;;21.21;89.13;99679.56;5019832;28;20008;-82
2022/09/01 09:50:19;;;;;;;;;;;;;;;21.62;89.94;99684.44;5019898;28;19966;-82
2022/09/01 09:52:45;;;;;;;;;;;;;;;22.14;88.64;99676.78;5018599;28;20382;-81
2022/09/01 09:55:20;;;;;;;;;;;;;;;22.64;87.26;99689.31;5019434;28;19913;-81
2022/09/01 09:57:47;;;;;;;;;;;;;;;23.06;85.29;99694.75;5019411;28;19921;-80
2022/09/01 10:00:15;;;;;;;;;;;;;;;22.99;82.69;99696.59;5019082;28;20367;-80
2022/09/01 10:02:44;;;;;;;;;;;;;;;23.19;81.32;99699.13;5020014;28;19920;-81
2022/09/01 10:05:28;;;;;;;;;;;;;;;23.41;79.53;99693.44;5019135;28;19913;-81
2022/09/01 10:07:54;;;;;;;;;;;;;;;23.74;80.05;99687.34;5019614;28;20371;-79
2022/09/01 10:10:26;;;;;;;;;;;;;;;23.73;77.67;99680.09;5037432;28;19920;-82
2022/09/01 10:12:52;;;;;;;;;;;;;;;23.74;76.36;99670.31;5019984;28;20053;-82
2022/09/01 10:15:19;;;;;;;;;;;;;;;24.21;74.23;99675.72;5019544;28;20358;-82
2022/09/01 10:17:45;;;;;;;;;;;;;;;25.14;73.04;99676.69;5036744;28;20008;-82
2022/09/01 10:20:13;;;;;;;;;;;;;;;25.83;69.14;99671.06;5018893;28;20363;-82
2022/09/01 10:22:40;;;;;;;;;;;;;;;25.92;68.10;99669.44;5018972;28;19913;-80
2022/09/01 10:25:06;;;;;;;;;;;;;;;25.85;69.50;99674.22;5018764;28;19913;-81
2022/09/01 10:27:36;;;;;;;;;;;;;;;25.99;68.08;99672.72;5019383;28;19920;-80
2022/09/01 10:30:05;;;;;;;;;;;;;;;25.99;66.15;99677.63;5019168;28;20315;-81
2022/09/01 10:32:33;;;;;;;;;;;;;;;26.38;65.74;99675.72;5018706;28;19913;-81
2022/09/01 10:34:59;;;;;;;;;;;;;;;26.74;65.91;99679.63;5018441;28;19917;-75
2022/09/01 10:37:25;;;;;;;;;;;;;;;25.94;66.79;99676.25;5019038;28;20343;-85
2022/09/01 10:40:09;;;;;;;;;;;;;;;25.39;68.62;99673.50;5018500;28;19920;-82
2022/09/01 10:42:34;;;;;;;;;;;;;;;24.98;70.59;99670.03;5036276;28;20299;-83
2022/09/01 10:45:02;;;;;;;;;;;;;;;24.78;70.47;99672.56;5018833;28;19917;-82
2022/09/01 10:47:32;;;;;;;;;;;;;;;24.71;70.65;99667.94;5018597;28;19920;-82
2022/09/01 10:50:00;;;;;;;;;;;;;;;25.31;70.03;99652.34;5036588;28;20000;-82
2022/09/01 10:52:40;;;;;;;;;;;;;;;25.46;69.59;99653.25;5018323;28;19913;-82
2022/09/01 10:55:09;;;;;;;;;;;;;;;25.91;68.07;99648.69;5018687;28;19913;-82
2022/09/01 10:57:39;;;;;;;;;;;;;;;25.94;68.48;99650.59;5036029;28;19913;-82
2022/09/01 11:00:19;;;;;;;;;;;;;;;25.80;66.88;99652.06;5036628;28;19913;-82
2022/09/01 11:03:03;;;;;;;;;;;;;;;26.08;66.67;99660.50;5036379;28;20000;-82
2022/09/01 11:05:49;;;;;;;;;;;;;;;25.48;65.47;99662.09;5018292;28;20370;-82
2022/09/01 11:08:26;;;;;;;;;;;;;;;25.91;67.29;99654.41;5017831;28;20303;-82
2022/09/01 11:11:12;;;;;;;;;;;;;;;25.46;68.04;99650.41;5018168;28;19932;-82
2022/09/01 11:13:42;;;;;;;;;;;;;;;25.72;67.77;99658.53;4988126;28;19913;-82
2022/09/01 11:16:20;;;;;;;;;;;;;;;26.06;65.95;99651.66;5035735;28;19943;-82
2022/09/01 11:18:46;;;;;;;;;;;;;;;26.37;64.94;99651.34;5017935;28;19913;-82
2022/09/01 11:21:28;;;;;;;;;;;;;;;27.19;63.78;99652.03;5018820;28;21237;-82
2022/09/01 11:24:18;;;;;;;;;;;;;;;26.46;64.33;99654.13;5018167;28;19917;-81
2022/09/01 11:26:45;;;;;;;;;;;;;;;26.89;62.91;99644.13;5010826;28;19932;-81
2022/09/01 11:29:30;;;;;;;;;;;;;;;27.07;63.30;99651.81;5018629;28;19924;-80
2022/09/01 11:31:57;;;;;;;;;;;;;;;27.08;63.58;99653.38;5034788;28;19966;-81
2022/09/01 11:34:26;;;;;;;;;;;;;;;27.26;63.08;99634.50;5017670;28;20003;-81
2022/09/01 11:36:53;;;;;;;;;;;;;;;27.24;63.06;99649.28;5018028;28;19913;-81
2022/09/01 11:39:18;;;;;;;;;;;;;;;26.89;63.75;99640.50;5035644;28;19944;-82
2022/09/01 11:41:43;;;;;;;;;;;;;;;27.03;63.65;99645.47;5017865;28;19944;-81
2022/09/01 11:44:16;;;;;;;;;;;;;;;26.72;64.73;99647.94;5017537;28;19913;-81
2022/09/01 11:46:42;;;;;;;;;;;;;;;26.34;65.54;99647.38;5018044;28;19919;-81
2022/09/01 11:49:17;;;;;;;;;;;;;;;26.08;66.51;99641.34;5018045;28;19956;-80
2022/09/01 11:51:46;;;;;;;;;;;;;;;25.75;68.48;99649.09;5017623;28;20008;-81
2022/09/01 11:54:13;;;;;;;;;;;;;;;25.72;68.59;99645.09;5016649;28;20011;-80
2022/09/01 11:56:38;;;;;;;;;;;;;;;25.60;69.69;99646.09;5017856;28;19913;-81
2022/09/01 11:59:04;;;;;;;;;;;;;;;25.71;69.97;99648.44;5017550;28;19917;-81
2022/09/01 12:01:29;;;;;;;;;;;;;;;25.67;69.63;99645.75;5016877;28;20387;-81
2022/09/01 12:03:54;;;;;;;;;;;;;;;25.61;69.80;99648.44;5016943;28;20267;-82
2022/09/01 12:06:22;;;;;;;;;;;;;;;25.59;71.42;99648.16;5016969;28;19971;-80
2022/09/01 12:08:55;;;;;;;;;;;;;;;25.67;72.79;99647.78;5016725;28;19920;-80
2022/09/01 12:11:24;;;;;;;;;;;;;;;25.53;74.15;99644.38;5034067;28;20328;-81
2022/09/01 12:13:53;;;;;;;;;;;;;;;25.50;75.11;99648.16;5034689;28;19913;-79
2022/09/01 12:16:20;;;;;;;;;;;;;;;25.32;76.74;99649.00;5016959;28;19917;-79
2022/09/01 12:18:50;;;;;;;;;;;;;;;25.35;77.43;99647.25;5016899;28;19913;-79
2022/09/01 12:21:42;;;;;;;;;;;;;;;25.24;77.89;99641.25;5034641;28;19913;-80
2022/09/01 12:24:11;;;;;;;;;;;;;;;25.37;78.73;99650.41;5015224;28;19912;-80
2022/09/01 12:26:37;;;;;;;;;;;;;;;25.42;78.14;99646.94;5016814;28;19913;-80
2022/09/01 12:29:03;;;;;;;;;;;;;;;25.42;77.04;99640.44;5017057;28;19919;-80
2022/09/01 12:31:28;;;;;;;;;;;;;;;25.59;76.93;99633.13;5016661;28;19913;-78
2022/09/01 12:33:55;;;;;;;;;;;;;;;25.57;74.03;99636.47;5016983;28;19913;-80
2022/09/01 12:36:22;;;;;;;;;;;;;;;25.68;72.32;99629.47;5017010;28;19913;-80
2022/09/01 12:38:48;;;;;;;;;;;;;;;25.42;72.35;99629.06;5016390;28;19956;-81
2022/09/01 12:41:23;;;;;;;;;;;;;;;25.40;73.65;99632.38;5016863;28;19955;-81
2022/09/01 12:43:48;;;;;;;;;;;;;;;25.54;73.71;99631.69;5016472;28;19983;-79
2022/09/01 12:46:33;;;;;;;;;;;;;;;25.61;73.44;99627.72;5016509;28;19917;-80
2022/09/01 12:49:15;;;;;;;;;;;;;;;25.77;72.07;99627.38;5016055;28;19913;-80
2022/09/01 12:51:41;;;;;;;;;;;;;;;26.30;70.82;99621.09;5033842;28;19920;-80
2022/09/01 12:54:06;;;;;;;;;;;;;;;26.19;69.51;99625.75;5016924;28;19921;-81
2022/09/01 12:56:33;;;;;;;;;;;;;;;26.07;70.35;99624.72;5017022;28;20240;-80
2022/09/01 12:59:07;;;;;;;;;;;;;;;25.78;71.50;99623.28;5016360;28;19920;-80
2022/09/01 13:01:33;;;;;;;;;;;;;;;25.69;71.72;99626.13;5033817;28;19920;-80
2022/09/01 13:04:10;;;;;;;;;;;;;;;26.11;71.16;99631.81;5032613;28;19917;-80
2022/09/01 13:06:35;;;;;;;;;;;;;;;26.42;68.97;99625.03;5034407;28;20075;-80